Latest Weather Observations for Lucas Heights

IDN60801

Issued at 10:03 pm EST Saturday 1 October 2016 (issued every 30 minutes, with the page automatically refreshed every 10 minutes)

About weather observations | Map of weather stations | Latest weather observations for NSW | Other Formats
Station Details ID: 066023 Name: LUCAS HEIGHTS AWS Lat: -34.05 Lon: 150.98 Height: 140.0 m
Data from the previous 72 hours. | See also: Recent months for locations in New South Wales
Date/Time
EST
Temp
°C
App
Temp
°C
Dew
Point
°C
Rel
Hum
%
Delta-T
°C
Wind Press
QNH
hPa
Press
MSL
hPa
Rain since
9am
mm
Dir  Spd
km/h
Gust
km/h
Spd
kts
Gust
kts
01/09:45pm 13.3 9.6 4.5 55 4.1 WNW 13 17 7 9 1010.9 - 0.0
01/09:30pm 12.6 9.3 4.5 58 3.7 WNW 11 15 6 8 1010.8 - 0.0
01/09:15pm 12.9 10.3 4.4 56 3.9 NW 7 9 4 5 1010.6 - 0.0
01/09:00pm 13.9 10.2 4.2 52 4.5 W 13 17 7 9 1010.5 - 0.0
01/08:45pm 14.8 10.3 4.3 49 4.9 W 17 20 9 11 1010.3 - 0.0
01/08:30pm 15.1 10.1 4.4 48 5.0 W 20 30 11 16 1010.2 - 0.0
01/08:15pm 15.3 10.3 4.6 49 5.0 WNW 20 33 11 18 1010.0 - 0.0
01/08:00pm 15.5 10.5 4.5 48 5.2 W 20 26 11 14 1009.8 - 0.0
01/07:45pm 15.6 10.5 4.3 47 5.3 W 20 26 11 14 1009.6 - 0.0
01/07:30pm 16.0 11.0 4.4 46 5.5 W 20 26 11 14 1009.4 - 0.0
01/07:15pm 16.4 11.0 4.4 45 5.7 W 22 35 12 19 1009.2 - 0.0
01/07:00pm 16.6 10.1 4.5 44 5.7 W 28 44 15 24 1008.8 - 0.0
01/06:45pm 16.7 10.6 5.0 46 5.6 W 26 43 14 23 1008.4 - 0.0
01/06:30pm 16.8 11.8 4.7 44 5.8 W 20 41 11 22 1008.1 - 0.0
01/06:15pm 17.1 12.1 4.4 43 6.0 W 20 43 11 23 1007.8 - 0.0
01/06:00pm 17.3 11.2 4.9 44 6.0 W 26 43 14 23 1007.6 - 0.0
01/05:45pm 17.8 11.8 5.2 43 6.1 W 26 39 14 21 1007.3 - 0.0
01/05:30pm 18.3 11.5 5.1 41 6.4 WSW 30 44 16 24 1007.1 - 0.0
01/05:15pm 18.5 12.5 5.3 42 6.5 W 26 39 14 21 1006.9 - 0.0
01/05:00pm 18.2 11.0 5.2 42 6.3 W 32 48 17 26 1006.7 - 0.0
01/04:45pm 18.6 13.0 5.2 41 6.5 W 24 43 13 23 1006.4 - 0.0
01/04:30pm 18.3 11.0 5.3 42 6.3 WSW 33 50 18 27 1006.3 - 0.0
01/04:15pm 18.8 10.7 5.1 40 6.7 W 37 54 20 29 1006.1 - 0.0
01/04:00pm 18.9 11.8 5.6 41 6.6 W 32 54 17 29 1005.8 - 0.0
01/03:45pm 18.7 10.2 5.2 41 6.6 W 39 57 21 31 1005.7 - 0.0
01/03:30pm 19.1 10.3 5.6 41 6.7 W 41 56 22 30 1005.7 - 0.0
01/03:15pm 19.1 10.0 5.7 41 6.6 W 43 57 23 31 1005.5 - 0.0
01/03:00pm 19.6 10.8 5.7 40 6.9 W 41 59 22 32 1005.1 - 0.0
01/02:45pm 19.7 10.3 5.4 39 7.1 W 44 61 24 33 1004.8 - 0.0
01/02:30pm 19.7 11.7 5.6 39 7.0 W 37 54 20 29 1005.0 - 0.0
01/02:15pm 19.5 11.9 5.7 40 6.8 W 35 57 19 31 1005.1 - 0.0
01/02:00pm 19.3 11.4 6.3 42 6.5 W 37 57 20 31 1005.2 - 0.0
01/01:45pm 19.2 10.1 5.9 41 6.6 W 43 59 23 32 1005.2 - 0.0
01/01:30pm 19.4 10.3 6.1 42 6.6 W 43 63 23 34 1005.2 - 0.0
01/01:15pm 19.0 10.7 6.2 43 6.4 W 39 52 21 28 1005.1 - 0.0
01/01:00pm 19.2 11.6 6.0 42 6.6 W 35 50 19 27 1004.9 - 0.0
01/12:45pm 19.8 10.7 6.0 40 6.9 W 43 57 23 31 1004.9 - 0.0
01/12:30pm 19.6 10.5 6.0 41 6.8 W 43 63 23 34 1004.8 - 0.0
01/12:15pm 19.5 10.8 6.1 41 6.7 W 41 63 22 34 1004.9 - 0.0
01/12:00pm 19.4 11.1 6.3 42 6.6 W 39 59 21 32 1004.9 - 0.0
01/11:45am 19.1 11.2 6.3 43 6.4 W 37 59 20 32 1004.9 - 0.0
01/11:30am 18.9 10.6 6.3 43 6.3 W 39 57 21 31 1004.8 - 0.0
01/11:15am 18.6 9.7 6.7 46 6.0 W 43 54 23 29 1004.8 - 0.0
01/11:00am 18.6 10.0 6.7 46 6.0 W 41 56 22 30 1005.1 - 0.0
01/10:45am 18.5 10.3 6.6 45 6.0 W 39 54 21 29 1005.0 - 0.0
01/10:30am 18.4 9.3 6.6 46 5.9 W 44 69 24 37 1004.7 - 0.0
01/10:15am 18.2 7.1 6.5 46 5.8 W 54 69 29 37 1004.5 - 0.0
01/10:00am 18.1 7.1 6.7 47 5.7 W 54 69 29 37 1004.3 - 0.0
01/09:45am 18.2 8.0 7.1 48 5.6 W 50 72 27 39 1004.5 - 0.0
01/09:30am 17.9 8.8 7.0 49 5.5 W 44 61 24 33 1004.7 - 0.0
01/09:15am 17.8 9.0 7.1 49 5.4 W 43 63 23 34 1004.7 - 0.0
01/09:00am 17.6 8.6 7.1 50 5.3 W 44 59 24 32 1004.5 - 0.0
01/08:45am 17.4 9.8 7.4 52 5.1 W 37 52 20 28 1004.6 - 0.0
01/08:30am 17.1 10.5 7.6 53 4.8 WNW 32 46 17 25 1004.6 - 0.0
01/08:15am 17.0 11.6 7.8 54 4.7 WNW 26 37 14 20 1004.6 - 0.0
01/08:00am 16.4 11.8 8.0 57 4.3 WNW 22 33 12 18 1004.6 - 0.0
01/07:45am 14.5 10.3 8.1 65 3.2 WNW 20 28 11 15 1004.6 - 0.0
01/07:30am 13.1 8.7 7.2 67 2.9 WNW 20 28 11 15 1004.4 - 0.0
01/07:15am 13.1 8.2 7.0 66 3.0 NW 22 28 12 15 1004.2 - 0.0
01/07:00am 13.1 7.8 6.9 66 3.0 WNW 24 32 13 17 1004.0 - 0.0
01/06:45am 12.8 7.5 6.8 67 2.9 WNW 24 33 13 18 1003.8 - 0.0
01/06:30am 12.5 7.2 6.8 68 2.8 WNW 24 30 13 16 1003.5 - 0.0
01/06:15am 12.2 7.4 7.3 72 2.4 WNW 22 30 12 16 1003.2 - 0.0
01/06:00am 9.8 5.5 7.0 83 1.3 WNW 19 26 10 14 1003.1 - 0.0
01/05:45am 8.1 4.1 5.1 81 1.3 WNW 15 20 8 11 1002.8 - 0.0
01/05:30am 8.6 4.8 5.8 82 1.3 WNW 15 24 8 13 1002.4 - 0.0
01/05:15am 8.1 5.3 5.0 81 1.4 WNW 9 17 5 9 1002.2 - 0.0
01/05:00am 8.8 5.2 5.1 77 1.7 WNW 13 20 7 11 1002.0 - 0.0
01/04:45am 10.5 6.3 5.5 71 2.3 NW 17 24 9 13 1001.6 - 0.0
01/04:30am 11.5 6.5 6.4 71 2.4 NW 22 26 12 14 1001.4 - 0.0
01/04:15am 11.2 6.2 6.5 73 2.2 NW 22 26 12 14 1001.1 - 0.0
01/04:00am 10.6 6.0 6.7 77 1.9 NW 20 24 11 13 1001.0 - 0.0
01/03:45am 9.1 5.3 6.0 81 1.4 NW 15 20 8 11 1000.8 - 0.0
01/03:30am 8.5 5.3 5.3 80 1.4 NNW 11 15 6 8 1000.6 - 0.0
01/03:15am 8.8 5.7 5.5 80 1.5 NNW 11 15 6 8 1000.6 - 0.0
01/03:00am 8.8 5.7 5.4 79 1.5 NNW 11 15 6 8 1000.6 - 0.0
01/02:45am 8.6 5.8 5.3 80 1.5 N 9 13 5 7 1000.7 - 0.0
01/02:30am 8.8 6.4 5.3 79 1.6 - 7 11 4 6 1000.6 - 0.0
01/02:15am 9.0 7.6 5.3 77 1.7 NNE 2 4 1 2 1000.9 - 0.0
01/02:00am 9.1 8.0 5.3 77 1.7 CALM 0 2 0 1 1000.9 - 0.0
01/01:45am 9.3 7.9 5.3 76 1.8 WNW 2 4 1 2 1001.0 - 0.0
01/01:30am 9.3 7.1 5.3 76 1.8 WNW 6 9 3 5 1001.0 - 0.0
01/01:15am 9.7 7.5 5.1 73 2.1 W 6 9 3 5 1001.1 - 0.0
01/01:00am 10.4 7.6 5.2 70 2.4 W 9 15 5 8 1001.1 - 0.0
01/12:45am 11.0 7.1 5.2 67 2.7 W 15 17 8 9 1001.1 - 0.0
01/12:30am 11.5 7.2 5.3 65 2.9 W 17 20 9 11 1001.2 - 0.0
01/12:15am 11.7 6.8 5.1 64 3.0 W 20 26 11 14 1001.2 - 0.0
01/12:00am 12.1 6.9 5.3 63 3.2 W 22 26 12 14 1001.2 - 0.0
 
Date/Time
EST
Temp
°C
App
Temp
°C
Dew
Point
°C
Rel
Hum
%
Delta-T
°C
Wind Press
QNH
hPa
Press
MSL
hPa
Rain since
9am
mm
Dir  Spd
km/h
Gust
km/h
Spd
kts
Gust
kts
30/11:45pm 12.6 7.0 5.3 61 3.4 W 24 32 13 17 1001.6 - 0.0
30/11:30pm 12.7 6.3 5.2 60 3.5 W 28 35 15 19 1001.5 - 0.0
30/11:15pm 12.8 6.0 5.0 59 3.6 W 30 33 16 18 1001.4 - 0.0
30/11:00pm 13.2 6.4 4.9 57 3.9 W 30 39 16 21 1001.5 - 0.0
30/10:45pm 13.4 6.2 4.8 56 4.0 W 32 43 17 23 1001.6 - 0.0
30/10:30pm 13.2 6.3 4.8 56 3.9 W 30 43 16 23 1001.6 - 0.0
30/10:15pm 12.5 6.7 4.6 58 3.6 WNW 24 35 13 19 1001.6 - 0.0
30/10:00pm 12.0 7.2 4.4 59 3.5 WNW 19 32 10 17 1001.4 - 0.0
30/09:45pm 12.2 7.2 4.5 59 3.5 WNW 20 28 11 15 1001.4 - 0.0
30/09:30pm 12.1 7.1 4.6 60 3.4 WNW 20 26 11 14 1001.3 - 0.0
30/09:15pm 12.4 7.6 4.6 59 3.6 WNW 19 24 10 13 1001.0 - 0.0
30/09:00pm 12.5 6.7 4.6 58 3.6 WNW 24 30 13 16 1001.0 - 0.0
30/08:45pm 12.4 7.0 4.6 59 3.6 WNW 22 30 12 16 1001.0 - 0.0
30/08:30pm 11.9 6.9 4.8 62 3.3 W 20 30 11 16 1001.1 - 0.0
30/08:15pm 11.7 7.3 4.6 62 3.2 WNW 17 26 9 14 1001.1 - 0.0
30/08:00pm 12.2 7.8 4.5 59 3.5 W 17 20 9 11 1001.0 - 0.0
30/07:45pm 12.6 7.6 4.6 58 3.7 W 20 26 11 14 1000.9 - 0.0
30/07:30pm 12.9 8.1 4.6 57 3.8 W 19 26 10 14 1000.7 - 0.0
30/07:15pm 12.9 8.1 4.8 58 3.8 WNW 19 24 10 13 1000.5 - 0.0
30/07:00pm 13.1 8.3 4.8 57 3.9 WNW 19 24 10 13 1000.2 - 0.0
30/06:45pm 13.0 8.1 5.0 58 3.7 WNW 20 30 11 16 1000.0 - 0.0
30/06:30pm 12.7 8.0 5.0 59 3.6 WNW 19 26 10 14 999.8 - 0.0
30/06:15pm 12.7 8.0 5.0 59 3.6 NW 19 30 10 16 999.5 - 0.0
30/06:00pm 12.8 8.4 4.9 58 3.7 NW 17 24 9 13 999.3 - 0.0
30/05:45pm 13.2 8.4 4.8 56 3.9 NW 19 26 10 14 999.1 - 0.0
30/05:30pm 13.3 7.9 4.5 55 4.1 NW 22 33 12 18 998.9 - 0.0
30/05:15pm 14.2 8.8 4.3 51 4.6 NW 22 39 12 21 998.7 - 0.0
30/05:00pm 15.3 7.9 3.9 46 5.3 WNW 32 50 17 27 998.3 - 0.0
30/04:45pm 15.5 7.5 3.8 45 5.4 WNW 35 52 19 28 998.0 - 0.0
30/04:30pm 15.7 6.9 3.5 44 5.6 WNW 39 54 21 29 997.8 - 0.0
30/04:15pm 16.1 7.7 3.6 43 5.8 WNW 37 52 20 28 997.6 - 0.0
30/04:00pm 16.1 7.7 3.5 43 5.8 WNW 37 52 20 28 997.5 - 0.0
30/03:45pm 16.2 7.8 3.6 43 5.8 WNW 37 54 20 29 997.2 - 0.0
30/03:30pm 16.5 8.1 3.9 43 5.9 WNW 37 54 20 29 997.1 - 0.0
30/03:15pm 16.2 8.9 4.6 46 5.5 NW 32 48 17 26 997.1 - 0.0
30/03:00pm 15.8 9.0 5.2 49 5.1 NW 30 52 16 28 997.1 - 0.0
30/02:45pm 16.4 10.5 5.7 49 5.2 NW 26 44 14 24 997.1 - 0.0
30/02:30pm 16.2 10.3 5.6 49 5.1 NW 26 43 14 23 997.2 - 0.0
30/02:15pm 15.6 9.2 5.1 49 5.0 NW 28 48 15 26 997.4 - 0.0
30/02:00pm 15.8 9.8 5.1 49 5.1 NW 26 43 14 23 997.6 - 0.0
30/01:45pm 15.8 9.0 5.3 49 5.0 NW 30 46 16 25 997.6 - 0.0
30/01:30pm 16.2 9.5 5.7 49 5.1 NW 30 50 16 27 997.5 - 0.0
30/01:15pm 16.1 10.2 5.6 49 5.1 NW 26 41 14 22 997.5 - 0.0
30/01:00pm 16.1 10.5 5.3 48 5.2 NW 24 44 13 24 997.7 - 0.0
30/12:45pm 16.2 10.6 5.4 48 5.2 WNW 24 46 13 25 997.8 - 0.0
30/12:30pm 16.1 10.4 5.1 48 5.3 WNW 24 35 13 19 997.9 - 0.0
30/12:15pm 16.2 10.1 5.0 47 5.4 WNW 26 39 14 21 997.9 - 0.0
30/12:00pm 16.2 10.6 5.2 48 5.3 WNW 24 39 13 21 997.9 - 0.0
30/11:45am 15.9 9.0 4.7 47 5.3 NW 30 43 16 23 998.0 - 0.0
30/11:30am 16.1 9.6 4.8 47 5.4 WNW 28 48 15 26 998.0 - 0.0
30/11:15am 16.6 9.7 4.8 45 5.6 NW 30 44 16 24 997.9 - 0.0
30/11:00am 16.0 9.1 4.8 47 5.3 NW 30 44 16 24 997.9 - 0.0
30/10:45am 15.7 8.8 4.4 47 5.3 WNW 30 41 16 22 998.0 - 0.0
30/10:30am 16.1 8.8 4.3 45 5.6 WNW 32 50 17 27 998.0 - 0.0
30/10:15am 16.1 9.5 4.4 45 5.5 WNW 28 43 15 23 997.9 - 0.0
30/10:00am 16.3 9.7 4.3 45 5.7 WNW 28 44 15 24 997.9 - 0.0
30/09:45am 16.4 10.3 5.0 47 5.5 WNW 26 44 14 24 997.9 - 0.0
30/09:30am 15.5 8.9 4.2 47 5.3 NW 28 44 15 24 998.0 - 0.0
30/09:15am 15.8 9.6 4.3 46 5.4 NW 26 46 14 25 998.1 - 0.0
30/09:00am 15.2 9.4 4.5 49 5.0 NW 24 39 13 21 998.1 - 0.9
30/08:45am 15.1 9.6 4.0 47 5.1 NW 22 35 12 19 998.2 - 0.9
30/08:30am 15.5 9.7 4.3 47 5.2 NNW 24 37 13 20 998.2 - 0.9
30/08:15am 14.8 9.0 4.3 49 4.9 NNW 24 37 13 20 998.1 - 0.9
30/08:00am 14.5 8.7 4.4 50 4.7 NNW 24 35 13 19 998.1 - 0.9
30/07:45am 14.1 9.7 4.6 52 4.4 NNW 17 32 9 17 998.2 - 0.9
30/07:30am 13.3 8.9 4.8 56 4.0 N 17 30 9 16 998.1 - 0.9
30/07:15am 12.3 8.7 4.9 60 3.4 N 13 24 7 13 998.0 - 0.9
30/07:00am 11.2 7.5 4.3 62 3.1 N 13 24 7 13 998.1 - 0.9
30/06:45am 10.5 6.7 4.0 64 2.9 - 13 17 7 9 998.0 - 0.9
30/06:30am 9.5 6.0 3.7 67 2.5 N 11 17 6 9 997.7 - 0.9
30/06:15am 8.9 5.4 3.3 68 2.4 N 11 15 6 8 997.5 - 0.9
30/06:00am 8.5 4.9 3.0 68 2.4 N 11 15 6 8 997.4 - 0.9
30/05:45am 8.7 4.7 2.8 66 2.5 N 13 17 7 9 997.3 - 0.9
30/05:30am 9.3 5.3 2.8 64 2.8 NNW 13 19 7 10 997.2 - 0.9
30/05:15am 9.9 4.6 3.0 62 3.0 NNW 20 26 11 14 997.1 - 0.9
30/05:00am 9.8 4.7 3.0 62 2.9 NNW 19 26 10 14 996.9 - 0.9
30/04:45am 9.6 5.2 2.8 62 2.9 N 15 22 8 12 996.8 - 0.9
30/04:30am 10.4 6.4 2.6 58 3.4 NNW 13 22 7 12 996.9 - 0.9
30/04:15am 10.9 6.1 2.6 56 3.6 NNW 17 26 9 14 997.1 - 0.9
30/04:00am 11.4 5.7 2.6 54 3.8 NW 22 32 12 17 997.0 - 0.9
30/03:45am 11.3 5.6 2.8 56 3.7 NW 22 33 12 18 996.9 - 0.9
30/03:30am 11.1 6.0 2.8 56 3.6 NW 19 28 10 15 997.1 - 0.9
30/03:15am 11.1 6.7 2.9 57 3.6 NW 15 24 8 13 997.4 - 0.9
30/03:00am 11.1 7.1 2.9 57 3.6 NNW 13 26 7 14 997.5 - 0.9
30/02:45am 11.3 6.9 2.9 56 3.7 NNW 15 26 8 14 997.4 - 0.9
30/02:30am 11.7 6.4 2.8 54 3.9 NW 20 30 11 16 997.3 - 0.9
30/02:15am 11.9 6.2 2.7 53 4.0 NW 22 33 12 18 997.5 - 0.9
30/02:00am 12.0 5.5 2.5 52 4.2 NW 26 41 14 22 997.7 - 0.9
30/01:45am 12.0 5.8 2.3 51 4.2 NW 24 35 13 19 998.0 - 0.9
30/01:30am 11.9 5.4 2.6 53 4.1 NW 26 35 14 19 998.3 - 0.9
30/01:15am 11.6 5.1 2.8 54 3.9 NW 26 33 14 18 998.6 - 0.9
30/01:00am 11.6 5.1 2.9 55 3.8 NW 26 32 14 17 998.8 - 0.9
30/12:45am 11.5 5.5 3.1 56 3.7 NW 24 32 13 17 998.9 - 0.9
30/12:30am 11.6 5.9 3.1 56 3.8 NW 22 26 12 14 998.9 - 0.9
30/12:15am 11.7 6.0 2.9 55 3.9 NW 22 24 12 13 999.0 - 0.9
30/12:00am 12.1 6.8 3.2 54 4.0 NW 20 24 11 13 999.0 - 0.9
 
Date/Time
EST
Temp
°C
App
Temp
°C
Dew
Point
°C
Rel
Hum
%
Delta-T
°C
Wind Press
QNH
hPa
Press
MSL
hPa
Rain since
9am
mm
Dir  Spd
km/h
Gust
km/h
Spd
kts
Gust
kts
29/11:45pm 12.3 7.6 3.1 53 4.1 NW 17 24 9 13 998.8 - 0.9
29/11:30pm 12.7 7.4 3.1 52 4.3 NW 20 28 11 15 998.4 - 0.9
29/11:15pm 13.1 7.1 3.2 51 4.4 NW 24 32 13 17 998.3 - 0.9
29/11:00pm 13.3 7.3 3.3 50 4.5 WNW 24 37 13 20 998.2 - 0.9
29/10:45pm 13.4 7.8 3.3 50 4.6 WNW 22 32 12 17 998.1 - 0.9
29/10:30pm 13.5 7.5 3.1 49 4.7 WNW 24 32 13 17 998.1 - 0.9
29/10:15pm 13.9 7.5 3.0 47 4.9 WNW 26 35 14 19 998.0 - 0.9
29/10:00pm 14.2 6.4 2.9 46 5.1 WNW 33 52 18 28 998.0 - 0.9
29/09:45pm 13.9 6.7 3.2 48 4.8 WNW 30 48 16 26 998.0 - 0.9
29/09:30pm 13.6 7.3 3.8 51 4.5 WNW 26 35 14 19 997.6 - 0.9
29/09:15pm 13.8 8.0 4.2 52 4.4 WNW 24 32 13 17 997.4 - 0.9
29/09:00pm 13.7 8.3 4.4 53 4.3 WNW 22 30 12 16 997.2 - 0.9
29/08:45pm 13.6 9.1 4.2 53 4.3 W 17 28 9 15 997.0 - 0.9
29/08:30pm 14.0 9.2 4.4 52 4.5 WNW 19 24 10 13 997.0 - 0.9
29/08:15pm 14.4 9.3 4.2 50 4.7 WNW 20 30 11 16 997.0 - 0.9
29/08:00pm 14.7 9.6 4.0 48 4.9 WNW 20 26 11 14 997.0 - 0.9
29/07:45pm 14.8 9.3 3.9 48 5.0 WNW 22 26 12 14 996.8 - 0.9
29/07:30pm 14.6 9.6 3.8 48 5.0 WNW 19 24 10 13 996.6 - 0.9
29/07:15pm 14.9 10.7 3.7 47 5.2 WNW 15 19 8 10 996.4 - 0.9
29/07:00pm 15.7 10.6 3.3 43 5.7 W 19 24 10 13 996.0 - 0.9
29/06:45pm 16.2 11.1 3.1 41 6.0 W 19 30 10 16 995.7 - 0.9
29/06:30pm 16.6 10.5 2.9 40 6.3 W 24 30 13 16 995.4 - 0.9
29/06:15pm 17.1 10.7 3.0 39 6.5 W 26 35 14 19 995.2 - 0.9
29/06:00pm 17.6 12.0 3.3 38 6.7 W 22 33 12 18 995.0 - 0.9
29/05:45pm 18.2 12.9 3.0 36 7.1 WNW 20 35 11 19 994.9 - 0.9
29/05:30pm 18.9 11.6 2.5 33 7.6 WNW 30 44 16 24 994.6 - 0.9
29/05:15pm 19.6 12.0 3.1 33 7.8 WNW 32 44 17 24 994.3 - 0.9
29/05:00pm 20.1 13.4 3.7 34 7.9 W 28 43 15 23 994.0 - 0.9
29/04:45pm 20.4 14.2 4.4 35 7.8 W 26 43 14 23 993.7 - 0.9
29/04:30pm 20.6 14.9 6.8 40 7.0 W 26 43 14 23 993.5 - 0.9
29/04:15pm 20.6 15.9 10.8 53 5.4 NW 26 43 14 23 993.3 - 0.9
29/04:00pm 20.5 16.6 12.2 59 4.7 NW 24 39 13 21 993.1 - 0.9
29/03:45pm 20.6 17.6 12.4 59 4.6 NNW 20 35 11 19 993.0 - 0.9
29/03:30pm 20.3 18.5 13.4 64 4.0 NNW 15 28 8 15 992.9 - 0.9
29/03:15pm 19.6 17.6 13.9 69 3.3 NNW 17 30 9 16 993.3 - 0.9
29/03:00pm 19.6 17.3 14.2 71 3.1 NNW 19 32 10 17 993.8 - 0.9
29/02:45pm 19.3 16.8 13.5 69 3.3 NNW 19 35 10 19 994.2 - 0.9
29/02:30pm 19.2 17.8 14.5 74 2.7 NNW 15 28 8 15 994.5 - 0.9
29/02:15pm 18.1 15.8 14.1 77 2.3 NW 19 30 10 16 994.6 - 0.9
29/02:00pm 17.7 15.6 13.5 76 2.4 NNW 17 30 9 16 994.5 - 0.9
29/01:45pm 18.4 16.2 14.4 77 2.3 NNW 19 30 10 16 994.6 - 0.9
29/01:30pm 17.2 14.9 14.0 81 1.8 NNE 19 30 10 16 994.6 - 0.9
29/01:15pm 16.4 13.8 13.1 81 1.9 NNE 19 30 10 16 995.5 - 0.9
29/01:00pm 16.4 14.1 13.1 81 1.9 NNE 17 30 9 16 996.2 - 0.7
29/12:45pm 16.1 13.8 13.0 82 1.7 NNE 17 28 9 15 996.3 - 0.7
29/12:30pm 15.7 13.8 12.9 83 1.6 NE 15 26 8 14 996.4 - 0.7
29/12:15pm 15.2 12.8 12.5 84 1.5 NNE 17 26 9 14 996.7 - 0.7
29/12:00pm 15.2 13.7 13.0 87 1.2 NE 13 26 7 14 996.7 - 0.7
29/11:45am 14.1 12.4 12.4 89 0.9 NNE 13 20 7 11 997.5 - 0.7
29/11:30am 13.1 11.5 11.6 91 0.8 NNE 11 22 6 12 998.0 - 0.7
29/11:15am 12.4 11.4 11.0 91 0.7 NNE 7 13 4 7 998.3 - 0.7
29/11:00am 12.2 11.1 10.7 90 0.8 N 7 15 4 8 998.6 - 0.7
29/10:45am 12.0 10.9 10.6 91 0.7 N 7 13 4 7 998.9 - 0.7
29/10:30am 11.8 10.3 10.4 91 0.7 N 9 15 5 8 999.3 - 0.7
29/10:15am 11.8 10.6 10.4 91 0.7 - 7 15 4 8 999.5 - 0.7
29/10:00am 11.9 10.4 10.5 91 0.7 N 9 20 5 11 999.7 - 0.7
29/09:45am 11.8 10.8 10.4 91 0.7 N 6 9 3 5 999.9 - 0.7
29/09:30am 11.7 10.7 10.2 90 0.8 N 6 9 3 5 1000.2 - 0.5
29/09:15am 11.6 10.3 10.1 90 0.8 - 7 15 4 8 1000.5 - 0.4
29/09:00am 11.6 10.0 10.1 90 0.8 N 9 15 5 8 1000.8 - 2.9
29/08:45am 11.6 9.6 10.1 90 0.8 NNW 11 15 6 8 1001.0 - 2.5
29/08:30am 11.6 9.9 10.0 90 0.8 N 9 15 5 8 1001.0 - 2.2
29/08:15am 11.5 9.0 9.8 89 0.9 N 13 17 7 9 1001.1 - 1.8
29/08:00am 11.5 9.8 9.7 89 0.9 NNE 9 13 5 7 1001.1 - 1.6
29/07:45am 11.6 10.2 9.6 87 1.0 NE 7 13 4 7 1001.1 - 1.1
29/07:30am 11.8 10.4 9.7 87 1.1 N 7 15 4 8 1001.6 - 0.7
29/07:15am 11.9 9.4 9.7 86 1.1 NW 13 20 7 11 1002.0 - 0.4
29/07:00am 12.1 9.6 9.8 86 1.2 NW 13 20 7 11 1002.1 - 0.0
29/06:45am 12.2 10.5 9.8 85 1.2 N 9 15 5 8 1002.1 - 0.0
29/06:30am 12.2 11.0 9.4 83 1.4 NNW 6 9 3 5 1002.1 - 0.0
29/06:15am 12.5 11.7 9.5 82 1.5 N 4 7 2 4 1002.3 - 0.0
29/06:00am 12.8 10.3 9.7 81 1.6 NW 13 20 7 11 1002.8 - 0.0
29/05:45am 12.6 9.7 9.6 82 1.5 NW 15 20 8 11 1003.0 - 0.0
29/05:30am 12.6 10.5 9.6 82 1.5 NNW 11 15 6 8 1002.9 - 0.0
29/05:15am 12.6 10.2 10.0 84 1.3 NNW 13 19 7 10 1003.1 - 0.0
29/05:00am 11.5 9.6 9.1 85 1.2 NNW 9 19 5 10 1003.0 - 0.0
29/04:45am 11.1 9.5 8.8 86 1.1 NNW 7 11 4 6 1003.1 - 0.0
29/04:30am 10.5 8.7 8.0 84 1.2 N 7 13 4 7 1003.3 - 0.0
29/04:15am 10.3 8.1 7.8 84 1.2 N 9 15 5 8 1003.5 - 0.0
29/04:00am 9.9 7.6 7.3 84 1.2 NNE 9 15 5 8 1003.7 - 0.0
29/03:45am 9.8 7.0 7.1 83 1.3 NNE 11 15 6 8 1004.1 - 0.0
29/03:30am 10.4 7.7 7.5 82 1.4 - 11 17 6 9 1004.5 - 0.0
29/03:15am 10.4 7.4 7.7 83 1.3 N 13 17 7 9 1004.9 - 0.0
29/03:00am 10.0 7.7 7.5 84 1.2 NNW 9 17 5 9 1005.2 - 0.0
29/02:45am 9.1 7.0 6.5 84 1.2 NNW 7 11 4 6 1005.5 - 0.0
29/02:30am 9.2 7.0 6.2 81 1.4 NNW 7 11 4 6 1005.8 - 0.0
29/02:15am 9.7 7.1 6.2 79 1.6 NNW 9 15 5 8 1006.3 - 0.0
29/02:00am 11.3 8.4 6.7 73 2.2 NNW 11 15 6 8 1006.7 - 0.0
29/01:45am 12.1 9.0 7.3 72 2.3 NW 13 17 7 9 1007.1 - 0.0
29/01:30am 11.9 8.8 7.3 73 2.2 WNW 13 17 7 9 1007.4 - 0.0
29/01:15am 12.0 9.1 8.1 77 1.9 NW 13 19 7 10 1007.6 - 0.0
29/01:00am 10.0 6.9 7.1 82 1.4 NW 13 19 7 10 1007.9 - 0.0
29/12:45am 9.4 6.5 6.5 82 1.4 NNW 11 15 6 8 1007.9 - 0.0
29/12:30am 9.5 6.6 6.6 82 1.4 NNW 11 15 6 8 1008.1 - 0.0
29/12:15am 9.2 6.6 6.1 81 1.4 NNW 9 13 5 7 1008.3 - 0.0
29/12:00am 9.5 6.9 6.2 80 1.5 NW 9 17 5 9 1008.6 - 0.0
 
Date/Time
EST
Temp
°C
App
Temp
°C
Dew
Point
°C
Rel
Hum
%
Delta-T
°C
Wind Press
QNH
hPa
Press
MSL
hPa
Rain since
9am
mm
Dir  Spd
km/h
Gust
km/h
Spd
kts
Gust
kts
28/11:45pm 9.9 7.3 6.3 78 1.7 NW 9 15 5 8 1008.8 - 0.0
28/11:30pm 10.7 7.7 6.1 73 2.2 NW 11 15 6 8 1009.1 - 0.0
28/11:15pm 11.8 8.7 7.1 73 2.3 NW 13 17 7 9 1009.4 - 0.0
28/11:00pm 11.0 7.8 6.7 75 2.0 NW 13 15 7 8 1009.6 - 0.0
28/10:45pm 10.8 7.6 6.8 76 1.9 NNW 13 15 7 8 1009.7 - 0.0
28/10:30pm 10.5 7.2 6.6 77 1.8 NNW 13 15 7 8 1009.7 - 0.0
28/10:15pm 10.9 8.4 6.7 75 2.0 NNW 9 17 5 9 1009.8 - 0.0

Other Formats:

Comma delimited format used in spreadsheet applications
http://www.bom.gov.au/fwo/IDN60801/IDN60801.95757.axf

JavaScript Object Notation format (JSON) in row-major order
http://www.bom.gov.au/fwo/IDN60801/IDN60801.95757.json